createdAt,value
2022-11-16T00:03:14.937Z,15.25
2022-11-16T00:07:02.952Z,15.25
2022-11-16T00:10:44.311Z,15.25
2022-11-16T00:14:25.070Z,15.25
2022-11-16T00:18:05.575Z,15.25
2022-11-16T00:21:46.457Z,15.25
2022-11-16T00:25:27.796Z,15.25
2022-11-16T00:29:08.954Z,15.25
2022-11-16T00:32:49.678Z,15.25
2022-11-16T00:36:30.554Z,15.25
2022-11-16T00:40:11.874Z,15.25
2022-11-16T00:43:52.681Z,15.25
2022-11-16T00:47:33.510Z,15.25
2022-11-16T00:51:14.746Z,15.25
2022-11-16T00:54:55.433Z,15.25
2022-11-16T00:58:36.455Z,15.187
2022-11-16T01:03:07.346Z,15.187
2022-11-16T01:06:48.610Z,15.187
2022-11-16T01:10:30.034Z,15.25
2022-11-16T01:14:11.070Z,15.25
2022-11-16T01:17:51.948Z,15.187
2022-11-16T01:21:32.633Z,15.25
2022-11-16T01:25:13.482Z,15.25
2022-11-16T01:28:55.173Z,15.25
2022-11-16T01:32:36.229Z,15.312
2022-11-16T01:36:16.936Z,15.312
2022-11-16T01:40:03.823Z,15.375
2022-11-16T01:43:44.293Z,15.375
2022-11-16T01:47:25.241Z,15.375
2022-11-16T01:51:06.597Z,15.375
2022-11-16T01:54:50.348Z,15.375
2022-11-16T01:58:31.573Z,15.437
2022-11-16T02:03:07.510Z,15.437
2022-11-16T02:06:48.282Z,15.437
2022-11-16T02:10:29.263Z,15.437
2022-11-16T02:14:12.108Z,15.437
2022-11-16T02:17:52.860Z,15.437
2022-11-16T02:21:33.072Z,15.437
2022-11-16T02:25:13.729Z,15.437
2022-11-16T02:28:55.396Z,15.437
2022-11-16T02:32:35.913Z,15.437
2022-11-16T02:36:16.628Z,15.437
2022-11-16T02:39:57.666Z,15.437
2022-11-16T02:43:38.523Z,15.437
2022-11-16T02:47:19.028Z,15.5
2022-11-16T02:51:00.376Z,15.437
2022-11-16T02:54:40.400Z,15.437
2022-11-16T02:58:20.685Z,15.5
2022-11-16T03:03:07.007Z,15.437
2022-11-16T03:06:47.571Z,15.5
2022-11-16T03:10:28.445Z,15.437
2022-11-16T03:14:10.211Z,15.5
2022-11-16T03:17:50.997Z,15.5
2022-11-16T03:21:31.850Z,15.5
2022-11-16T03:25:12.350Z,15.5
2022-11-16T03:28:53.847Z,15.5
2022-11-16T03:32:34.422Z,15.437
2022-11-16T03:36:14.875Z,15.437
2022-11-16T03:39:56.156Z,15.437
2022-11-16T03:43:36.774Z,15.437
2022-11-16T03:47:17.409Z,15.437
2022-11-16T03:50:58.779Z,15.437
2022-11-16T03:54:39.610Z,15.437
2022-11-16T03:58:26.037Z,15.437
2022-11-16T04:03:13.913Z,15.437
2022-11-16T04:06:55.899Z,15.437
2022-11-16T04:10:36.772Z,15.437
2022-11-16T04:14:17.365Z,15.437
2022-11-16T04:17:58.231Z,15.437
2022-11-16T04:21:44.203Z,15.437
2022-11-16T04:25:24.858Z,15.437
2022-11-16T04:29:06.251Z,15.437
2022-11-16T04:32:46.901Z,15.437
2022-11-16T04:36:27.373Z,15.437
2022-11-16T04:40:08.560Z,15.437
2022-11-16T04:43:48.753Z,15.437
2022-11-16T04:47:29.677Z,15.437
2022-11-16T04:51:10.992Z,15.437
2022-11-16T04:54:51.505Z,15.437
2022-11-16T04:58:38.471Z,15.437
2022-11-16T05:03:07.935Z,15.437
2022-11-16T05:08:36.710Z,15.437
2022-11-16T05:12:17.464Z,15.437
2022-11-16T05:15:58.671Z,15.437
2022-11-16T05:19:39.611Z,15.437
2022-11-16T05:23:20.564Z,15.437
2022-11-16T05:27:06.272Z,15.437
2022-11-16T05:30:46.938Z,15.437
2022-11-16T05:34:35.213Z,15.437
2022-11-16T05:38:16.122Z,15.437
2022-11-16T05:41:56.751Z,15.437
2022-11-16T05:45:42.169Z,15.437
2022-11-16T05:49:23.991Z,15.437
2022-11-16T05:53:09.757Z,15.437
2022-11-16T05:56:50.878Z,15.437
2022-11-16T06:03:07.111Z,15.437
2022-11-16T06:06:50.315Z,15.437
2022-11-16T06:10:30.999Z,15.437
2022-11-16T06:14:18.841Z,15.437
2022-11-16T06:17:59.649Z,15.437
2022-11-16T06:21:40.374Z,15.437
2022-11-16T06:25:21.171Z,15.437
2022-11-16T06:29:02.652Z,15.375
2022-11-16T06:32:42.854Z,15.375
2022-11-16T06:36:28.714Z,15.437
2022-11-16T06:40:09.512Z,15.437
2022-11-16T06:43:50.031Z,15.437
2022-11-16T06:47:31.368Z,15.437
2022-11-16T06:51:12.577Z,15.437
2022-11-16T06:54:58.751Z,15.437
2022-11-16T06:58:42.811Z,15.437
2022-11-16T07:03:07.359Z,15.437
2022-11-16T07:06:55.409Z,15.437
2022-11-16T07:10:36.381Z,15.5
2022-11-16T07:14:16.680Z,15.5
2022-11-16T07:17:58.735Z,15.5
2022-11-16T07:21:39.103Z,15.5
2022-11-16T07:25:20.153Z,15.437
2022-11-16T07:29:08.673Z,15.437
2022-11-16T07:32:49.477Z,15.437
2022-11-16T07:36:34.139Z,15.437
2022-11-16T07:40:15.745Z,15.375
2022-11-16T07:43:56.053Z,15.375
2022-11-16T07:48:23.495Z,15.375
2022-11-16T07:52:06.242Z,15.375
2022-11-16T07:55:47.287Z,15.312
2022-11-16T07:59:33.983Z,15.312
2022-11-16T08:03:07.689Z,15.312
2022-11-16T08:06:54.757Z,15.312
2022-11-16T08:10:44.806Z,15.312
2022-11-16T08:14:25.619Z,15.312
2022-11-16T08:18:06.112Z,15.312
2022-11-16T08:21:47.256Z,15.25
2022-11-16T08:25:33.515Z,15.25
2022-11-16T08:29:14.851Z,15.25
2022-11-16T08:32:55.687Z,15.25
2022-11-16T08:36:43.021Z,15.25
2022-11-16T08:40:24.190Z,15.25
2022-11-16T08:44:12.696Z,15.25
2022-11-16T08:48:03.617Z,15.187
2022-11-16T08:52:06.750Z,15.187
2022-11-16T08:55:47.638Z,15.25
2022-11-16T08:59:36.054Z,15.25
2022-11-16T09:03:07.638Z,15.312
2022-11-16T09:06:48.283Z,15.312
2022-11-16T09:10:30.007Z,15.312
2022-11-16T09:14:10.930Z,15.312
2022-11-16T09:17:57.785Z,15.312
2022-11-16T09:21:38.942Z,15.312
2022-11-16T09:25:19.669Z,15.312
2022-11-16T09:29:01.306Z,15.312
2022-11-16T09:32:47.628Z,15.312
2022-11-16T09:36:28.915Z,15.312
2022-11-16T09:41:15.229Z,15.312
2022-11-16T09:44:56.517Z,15.375
2022-11-16T09:48:37.074Z,15.375
2022-11-16T09:52:17.954Z,15.437
2022-11-16T09:56:04.939Z,15.437
2022-11-16T10:03:07.623Z,15.562
2022-11-16T10:06:50.308Z,15.625
2022-11-16T10:10:31.277Z,15.687
2022-11-16T10:14:12.691Z,15.75
2022-11-16T10:17:53.242Z,15.75
2022-11-16T10:21:33.643Z,15.75
2022-11-16T10:25:14.776Z,15.687
2022-11-16T10:29:02.505Z,15.687
2022-11-16T10:32:43.384Z,15.687
2022-11-16T10:36:24.886Z,15.687
2022-11-16T10:40:05.609Z,15.75
2022-11-16T10:43:54.278Z,15.875
2022-11-16T10:47:35.154Z,15.937
2022-11-16T10:51:15.790Z,16.062
2022-11-16T10:55:03.497Z,16.125
2022-11-16T10:58:44.332Z,16.25
2022-11-16T11:03:12.388Z,16.312
2022-11-16T11:06:53.611Z,16.375
2022-11-16T11:10:41.863Z,16.437
2022-11-16T11:14:22.824Z,16.437
2022-11-16T11:18:09.291Z,16.5
2022-11-16T11:21:50.184Z,16.5
2022-11-16T11:26:08.567Z,16.5
2022-11-16T11:29:49.239Z,16.437
2022-11-16T11:33:29.709Z,16.312
2022-11-16T11:37:11.025Z,16.187
2022-11-16T11:40:58.670Z,16.187
2022-11-16T11:44:44.271Z,16.187
2022-11-16T11:49:43.156Z,16.25
2022-11-16T11:53:23.560Z,16.375
2022-11-16T11:57:11.784Z,16.375
2022-11-16T12:03:12.144Z,16.375
2022-11-16T12:06:53.254Z,16.375
2022-11-16T12:10:34.346Z,16.375
2022-11-16T12:14:15.338Z,16.375
2022-11-16T12:17:56.287Z,16.437
2022-11-16T12:21:37.253Z,16.437
2022-11-16T12:25:18.527Z,16.375
2022-11-16T12:28:59.546Z,16.375
2022-11-16T12:32:40.079Z,16.5
2022-11-16T12:36:21.435Z,16.625
2022-11-16T12:40:06.696Z,16.75
2022-11-16T12:43:47.289Z,16.75
2022-11-16T12:47:27.648Z,16.75
2022-11-16T12:51:08.041Z,16.75
2022-11-16T12:55:23.642Z,16.75
2022-11-16T12:59:05.119Z,16.75
2022-11-16T13:03:08.026Z,16.812
2022-11-16T13:06:48.332Z,16.875
2022-11-16T13:10:29.196Z,16.875
2022-11-16T13:14:32.818Z,16.75
2022-11-16T13:18:13.187Z,16.625
2022-11-16T13:22:00.143Z,16.562
2022-11-16T13:25:40.426Z,16.437
2022-11-16T13:29:23.394Z,16.437
2022-11-16T13:33:04.318Z,16.5
2022-11-16T13:36:45.742Z,16.562
2022-11-16T13:40:26.767Z,16.562
2022-11-16T13:44:07.611Z,16.5
2022-11-16T13:48:26.119Z,16.437
2022-11-16T13:52:23.204Z,16.437
2022-11-16T13:58:19.972Z,16.312
2022-11-16T14:03:07.622Z,16.25
2022-11-16T14:06:47.928Z,16.25
2022-11-16T14:10:28.685Z,16.25
2022-11-16T14:14:09.786Z,16.25
2022-11-16T14:17:57.655Z,16.187
2022-11-16T14:21:45.563Z,16.125
2022-11-16T14:25:26.618Z,16.062
2022-11-16T14:29:11.112Z,16.062
2022-11-16T14:32:51.719Z,16.0
2022-11-16T14:36:32.904Z,16.0
2022-11-16T14:40:13.386Z,16.0
2022-11-16T14:44:07.161Z,15.937
2022-11-16T14:47:47.973Z,15.937
2022-11-16T14:51:29.889Z,15.937
2022-11-16T14:55:11.233Z,15.937
2022-11-16T14:58:52.050Z,15.937
2022-11-16T15:03:12.542Z,15.937
2022-11-16T15:06:53.513Z,15.937
2022-11-16T15:10:34.692Z,15.937
2022-11-16T15:14:22.111Z,15.875
2022-11-16T15:18:10.605Z,15.875
2022-11-16T15:21:50.958Z,15.875
2022-11-16T15:26:11.261Z,15.875
2022-11-16T15:29:51.744Z,15.875
2022-11-16T15:33:32.484Z,15.875
2022-11-16T15:37:13.375Z,15.875
2022-11-16T15:40:54.025Z,15.812
2022-11-16T15:45:03.030Z,15.812
2022-11-16T15:48:50.771Z,15.812
2022-11-16T15:52:39.018Z,15.812
2022-11-16T15:56:21.021Z,15.812
2022-11-16T16:03:08.080Z,15.812
2022-11-16T16:06:53.336Z,15.812
2022-11-16T16:10:34.522Z,15.812
2022-11-16T16:14:21.828Z,15.812
2022-11-16T16:18:02.443Z,15.812
2022-11-16T16:21:48.575Z,15.812
2022-11-16T16:25:28.854Z,15.812
2022-11-16T16:29:09.223Z,15.812
2022-11-16T16:32:49.677Z,15.812
2022-11-16T16:36:34.198Z,15.75
2022-11-16T16:40:15.239Z,15.75
2022-11-16T16:44:02.585Z,15.75
2022-11-16T16:47:43.574Z,15.75
2022-11-16T16:51:29.063Z,15.75
2022-11-16T16:55:09.792Z,15.75
2022-11-16T16:58:50.439Z,15.75
2022-11-16T17:03:07.499Z,15.687
2022-11-16T17:08:38.312Z,15.687
2022-11-16T17:12:18.629Z,15.687
2022-11-16T17:16:06.666Z,15.687
2022-11-16T17:19:47.571Z,15.687
2022-11-16T17:23:33.931Z,15.687
2022-11-16T17:27:14.271Z,15.687
2022-11-16T17:30:54.050Z,15.687
2022-11-16T17:34:39.811Z,15.687
2022-11-16T17:38:20.217Z,15.625
2022-11-16T17:42:00.254Z,15.687
2022-11-16T17:45:45.234Z,15.625
2022-11-16T17:49:25.087Z,15.625
2022-11-16T17:53:04.867Z,15.625
2022-11-16T17:56:44.789Z,15.625
2022-11-16T18:03:06.861Z,15.625
2022-11-16T18:06:46.691Z,15.625
2022-11-16T18:10:27.107Z,15.625
2022-11-16T18:14:07.989Z,15.625
2022-11-16T18:18:27.758Z,15.625
2022-11-16T18:22:09.570Z,15.562
2022-11-16T18:25:49.402Z,15.562
2022-11-16T18:29:29.155Z,15.562
2022-11-16T18:33:09.647Z,15.562
2022-11-16T18:36:49.594Z,15.562
2022-11-16T18:40:29.653Z,15.562
2022-11-16T18:44:10.347Z,15.562
2022-11-16T18:47:50.403Z,15.562
2022-11-16T18:51:30.450Z,15.562
2022-11-16T18:55:11.238Z,15.562
2022-11-16T18:59:33.081Z,15.5
2022-11-16T19:03:11.244Z,15.5
2022-11-16T19:06:51.399Z,15.5
2022-11-16T19:10:40.969Z,15.5
2022-11-16T19:14:21.602Z,15.5
2022-11-16T19:18:48.489Z,15.5
2022-11-16T19:22:28.574Z,15.5
2022-11-16T19:26:09.603Z,15.5
2022-11-16T19:29:49.649Z,15.5
2022-11-16T19:33:29.621Z,15.5
2022-11-16T19:37:16.269Z,15.437
2022-11-16T19:41:02.529Z,15.437
2022-11-16T19:44:42.363Z,15.437
2022-11-16T19:48:22.300Z,15.437
2022-11-16T19:52:08.387Z,15.437
2022-11-16T19:55:48.515Z,15.437
2022-11-16T19:59:33.512Z,15.437
2022-11-16T20:03:06.177Z,15.437
2022-11-16T20:06:53.399Z,15.437
2022-11-16T20:10:40.958Z,15.437
2022-11-16T20:14:21.926Z,15.437
2022-11-16T20:18:08.123Z,15.437
2022-11-16T20:21:48.173Z,15.375
2022-11-16T20:25:35.579Z,15.375
2022-11-16T20:29:15.534Z,15.375
2022-11-16T20:33:03.385Z,15.375
2022-11-16T20:36:48.151Z,15.375
2022-11-16T20:40:28.174Z,15.375
2022-11-16T20:44:14.960Z,15.375
2022-11-16T20:47:56.245Z,15.375
2022-11-16T20:51:36.265Z,15.375
2022-11-16T20:55:25.509Z,15.375
2022-11-16T20:59:11.384Z,15.375
2022-11-16T21:03:06.889Z,15.375
2022-11-16T21:06:52.004Z,15.375
2022-11-16T21:10:32.477Z,15.375
2022-11-16T21:14:17.909Z,15.375
2022-11-16T21:17:57.820Z,15.375
2022-11-16T21:22:13.786Z,15.375
2022-11-16T21:26:00.816Z,15.375
2022-11-16T21:29:46.160Z,15.375
2022-11-16T21:33:26.228Z,15.375
2022-11-16T21:37:11.869Z,15.375
2022-11-16T21:40:51.685Z,15.375
2022-11-16T21:44:31.684Z,15.375
2022-11-16T21:48:11.694Z,15.312
2022-11-16T21:52:22.561Z,15.312
2022-11-16T21:56:03.479Z,15.312
2022-11-16T21:59:43.390Z,15.312
2022-11-16T22:03:07.084Z,15.312
2022-11-16T22:06:54.522Z,15.312
2022-11-16T22:10:34.832Z,15.312
2022-11-16T22:14:15.564Z,15.312
2022-11-16T22:17:55.556Z,15.312
2022-11-16T22:21:35.278Z,15.312
2022-11-16T22:25:18.412Z,15.312
2022-11-16T22:29:29.289Z,15.312
2022-11-16T22:33:14.732Z,15.312
2022-11-16T22:36:55.141Z,15.312
2022-11-16T22:40:41.135Z,15.312
2022-11-16T22:44:22.589Z,15.312
2022-11-16T22:48:02.769Z,15.25
2022-11-16T22:51:43.130Z,15.25
2022-11-16T22:55:24.189Z,15.25
2022-11-16T22:59:03.995Z,15.25
2022-11-16T23:03:14.279Z,15.25
2022-11-16T23:06:54.521Z,15.25
2022-11-16T23:10:34.698Z,15.25
2022-11-16T23:14:21.724Z,15.25
2022-11-16T23:18:01.738Z,15.25
2022-11-16T23:21:46.607Z,15.25
2022-11-16T23:25:27.328Z,15.25
2022-11-16T23:29:07.230Z,15.25
2022-11-16T23:32:54.773Z,15.25
2022-11-16T23:36:34.630Z,15.25
2022-11-16T23:40:14.641Z,15.187
2022-11-16T23:43:55.092Z,15.187
2022-11-16T23:47:35.055Z,15.187
2022-11-16T23:51:14.892Z,15.187
2022-11-16T23:54:54.984Z,15.187
2022-11-16T23:58:41.596Z,15.187
